sensor_id;sensor_type;location;lat;lon;timestamp;temperature;humidity
66708;DHT22;53622;0.000;0.000;2023-07-16T00:00:09;24.70;66.10
66708;DHT22;53622;0.000;0.000;2023-07-16T00:02:38;24.70;66.00
66708;DHT22;53622;0.000;0.000;2023-07-16T00:05:08;24.70;66.00
66708;DHT22;53622;0.000;0.000;2023-07-16T00:07:38;24.70;65.70
66708;DHT22;53622;0.000;0.000;2023-07-16T00:10:09;24.60;65.40
66708;DHT22;53622;0.000;0.000;2023-07-16T00:12:39;24.60;65.20
66708;DHT22;53622;0.000;0.000;2023-07-16T00:15:09;24.60;64.90
66708;DHT22;53622;0.000;0.000;2023-07-16T00:17:38;24.60;64.90
66708;DHT22;53622;0.000;0.000;2023-07-16T00:20:08;24.60;64.60
66708;DHT22;53622;0.000;0.000;2023-07-16T00:22:38;24.60;64.10
66708;DHT22;53622;0.000;0.000;2023-07-16T00:25:09;24.60;64.40
66708;DHT22;53622;0.000;0.000;2023-07-16T00:27:38;24.60;65.40
66708;DHT22;53622;0.000;0.000;2023-07-16T00:30:09;24.50;66.60
66708;DHT22;53622;0.000;0.000;2023-07-16T00:32:39;24.50;67.40
66708;DHT22;53622;0.000;0.000;2023-07-16T00:35:09;24.50;67.50
66708;DHT22;53622;0.000;0.000;2023-07-16T00:37:38;24.50;66.60
66708;DHT22;53622;0.000;0.000;2023-07-16T00:40:09;24.50;66.30
66708;DHT22;53622;0.000;0.000;2023-07-16T00:42:39;24.50;66.20
66708;DHT22;53622;0.000;0.000;2023-07-16T00:45:12;24.40;66.00
66708;DHT22;53622;0.000;0.000;2023-07-16T00:47:43;24.50;65.90
66708;DHT22;53622;0.000;0.000;2023-07-16T00:50:13;24.40;65.40
66708;DHT22;53622;0.000;0.000;2023-07-16T00:52:42;24.40;65.00
66708;DHT22;53622;0.000;0.000;2023-07-16T00:55:13;24.40;64.30
66708;DHT22;53622;0.000;0.000;2023-07-16T00:57:43;24.40;64.00
66708;DHT22;53622;0.000;0.000;2023-07-16T01:00:14;24.40;64.10
66708;DHT22;53622;0.000;0.000;2023-07-16T01:02:44;24.40;63.30
66708;DHT22;53622;0.000;0.000;2023-07-16T01:05:14;24.40;63.20
66708;DHT22;53622;0.000;0.000;2023-07-16T01:07:55;24.40;63.40
66708;DHT22;53622;0.000;0.000;2023-07-16T01:10:28;24.40;63.60
66708;DHT22;53622;0.000;0.000;2023-07-16T01:12:58;24.30;63.50
66708;DHT22;53622;0.000;0.000;2023-07-16T01:15:29;24.30;63.70
66708;DHT22;53622;0.000;0.000;2023-07-16T01:18:00;24.30;63.50
66708;DHT22;53622;0.000;0.000;2023-07-16T01:20:29;24.30;63.30
66708;DHT22;53622;0.000;0.000;2023-07-16T01:29:18;24.30;63.40
66708;DHT22;53622;0.000;0.000;2023-07-16T01:31:50;24.30;63.50
66708;DHT22;53622;0.000;0.000;2023-07-16T01:34:21;24.20;63.60
66708;DHT22;53622;0.000;0.000;2023-07-16T01:36:51;24.20;63.20
66708;DHT22;53622;0.000;0.000;2023-07-16T01:39:21;24.20;60.80
66708;DHT22;53622;0.000;0.000;2023-07-16T01:41:50;24.20;61.50
66708;DHT22;53622;0.000;0.000;2023-07-16T01:44:21;24.20;60.80
66708;DHT22;53622;0.000;0.000;2023-07-16T01:47:04;24.20;60.50
66708;DHT22;53622;0.000;0.000;2023-07-16T01:49:34;24.20;60.20
66708;DHT22;53622;0.000;0.000;2023-07-16T01:52:04;24.20;59.90
66708;DHT22;53622;0.000;0.000;2023-07-16T01:54:34;24.20;59.50
66708;DHT22;53622;0.000;0.000;2023-07-16T01:57:03;24.20;59.20
66708;DHT22;53622;0.000;0.000;2023-07-16T01:59:35;24.10;58.80
66708;DHT22;53622;0.000;0.000;2023-07-16T02:02:04;24.10;58.50
66708;DHT22;53622;0.000;0.000;2023-07-16T02:04:34;24.10;58.50
66708;DHT22;53622;0.000;0.000;2023-07-16T02:07:04;24.10;58.50
66708;DHT22;53622;0.000;0.000;2023-07-16T02:09:34;24.10;58.30
66708;DHT22;53622;0.000;0.000;2023-07-16T02:12:04;24.10;58.30
66708;DHT22;53622;0.000;0.000;2023-07-16T02:14:35;24.10;57.90
66708;DHT22;53622;0.000;0.000;2023-07-16T02:17:05;24.10;58.00
66708;DHT22;53622;0.000;0.000;2023-07-16T02:19:34;24.10;58.00
66708;DHT22;53622;0.000;0.000;2023-07-16T02:22:04;24.10;58.00
66708;DHT22;53622;0.000;0.000;2023-07-16T02:24:33;24.10;58.30
66708;DHT22;53622;0.000;0.000;2023-07-16T02:27:04;24.10;58.40
66708;DHT22;53622;0.000;0.000;2023-07-16T02:29:35;24.10;58.50
66708;DHT22;53622;0.000;0.000;2023-07-16T02:32:04;24.10;58.50
66708;DHT22;53622;0.000;0.000;2023-07-16T02:34:34;24.00;58.50
66708;DHT22;53622;0.000;0.000;2023-07-16T02:37:03;24.00;58.20
66708;DHT22;53622;0.000;0.000;2023-07-16T02:39:33;24.10;58.50
66708;DHT22;53622;0.000;0.000;2023-07-16T02:42:02;24.10;58.50
66708;DHT22;53622;0.000;0.000;2023-07-16T02:44:32;24.10;58.60
66708;DHT22;53622;0.000;0.000;2023-07-16T02:47:04;24.10;58.60
66708;DHT22;53622;0.000;0.000;2023-07-16T02:49:34;24.00;58.80
66708;DHT22;53622;0.000;0.000;2023-07-16T02:52:05;24.00;59.10
66708;DHT22;53622;0.000;0.000;2023-07-16T02:54:35;24.00;59.70
66708;DHT22;53622;0.000;0.000;2023-07-16T02:57:05;24.00;59.00
66708;DHT22;53622;0.000;0.000;2023-07-16T02:59:34;24.00;59.00
66708;DHT22;53622;0.000;0.000;2023-07-16T03:02:05;24.00;59.00
66708;DHT22;53622;0.000;0.000;2023-07-16T03:04:35;24.00;59.00
66708;DHT22;53622;0.000;0.000;2023-07-16T03:07:04;24.00;58.60
66708;DHT22;53622;0.000;0.000;2023-07-16T03:09:34;24.00;58.50
66708;DHT22;53622;0.000;0.000;2023-07-16T03:12:05;24.00;58.70
66708;DHT22;53622;0.000;0.000;2023-07-16T03:14:35;23.90;58.70
66708;DHT22;53622;0.000;0.000;2023-07-16T03:17:06;23.90;58.90
66708;DHT22;53622;0.000;0.000;2023-07-16T03:19:35;23.90;58.90
66708;DHT22;53622;0.000;0.000;2023-07-16T03:22:05;23.90;59.20
66708;DHT22;53622;0.000;0.000;2023-07-16T03:24:34;23.90;59.50
66708;DHT22;53622;0.000;0.000;2023-07-16T03:27:04;23.90;60.00
66708;DHT22;53622;0.000;0.000;2023-07-16T03:29:47;23.90;60.30
66708;DHT22;53622;0.000;0.000;2023-07-16T03:32:19;23.90;60.40
66708;DHT22;53622;0.000;0.000;2023-07-16T03:34:49;23.80;60.50
66708;DHT22;53622;0.000;0.000;2023-07-16T03:37:18;23.80;60.70
66708;DHT22;53622;0.000;0.000;2023-07-16T03:39:49;23.80;60.60
66708;DHT22;53622;0.000;0.000;2023-07-16T03:42:19;23.70;60.20
66708;DHT22;53622;0.000;0.000;2023-07-16T03:44:50;23.60;60.30
66708;DHT22;53622;0.000;0.000;2023-07-16T03:47:21;23.60;60.60
66708;DHT22;53622;0.000;0.000;2023-07-16T03:49:50;23.60;60.50
66708;DHT22;53622;0.000;0.000;2023-07-16T03:52:20;23.60;60.60
66708;DHT22;53622;0.000;0.000;2023-07-16T03:54:49;23.60;60.80
66708;DHT22;53622;0.000;0.000;2023-07-16T03:57:19;23.50;60.20
66708;DHT22;53622;0.000;0.000;2023-07-16T03:59:48;23.50;60.60
66708;DHT22;53622;0.000;0.000;2023-07-16T04:02:17;23.50;60.40
66708;DHT22;53622;0.000;0.000;2023-07-16T04:04:48;23.50;59.80
66708;DHT22;53622;0.000;0.000;2023-07-16T04:07:18;23.50;59.40
66708;DHT22;53622;0.000;0.000;2023-07-16T04:09:47;23.50;59.10
66708;DHT22;53622;0.000;0.000;2023-07-16T04:12:17;23.50;59.10
66708;DHT22;53622;0.000;0.000;2023-07-16T04:14:46;23.50;59.40
66708;DHT22;53622;0.000;0.000;2023-07-16T04:17:16;23.40;59.70
66708;DHT22;53622;0.000;0.000;2023-07-16T04:19:45;23.40;60.20
66708;DHT22;53622;0.000;0.000;2023-07-16T04:22:16;23.40;60.50
66708;DHT22;53622;0.000;0.000;2023-07-16T04:24:46;23.40;61.10
66708;DHT22;53622;0.000;0.000;2023-07-16T04:27:15;23.40;61.40
66708;DHT22;53622;0.000;0.000;2023-07-16T04:29:45;23.30;62.20
66708;DHT22;53622;0.000;0.000;2023-07-16T04:32:14;23.30;62.40
66708;DHT22;53622;0.000;0.000;2023-07-16T04:34:43;23.20;62.10
66708;DHT22;53622;0.000;0.000;2023-07-16T04:37:12;23.20;62.70
66708;DHT22;53622;0.000;0.000;2023-07-16T04:39:43;23.10;63.20
66708;DHT22;53622;0.000;0.000;2023-07-16T04:42:13;23.10;63.20
66708;DHT22;53622;0.000;0.000;2023-07-16T04:44:45;23.10;63.00
66708;DHT22;53622;0.000;0.000;2023-07-16T04:47:14;23.10;62.70
66708;DHT22;53622;0.000;0.000;2023-07-16T04:49:43;23.10;62.90
66708;DHT22;53622;0.000;0.000;2023-07-16T04:52:13;23.10;63.00
66708;DHT22;53622;0.000;0.000;2023-07-16T04:54:44;23.10;63.70
66708;DHT22;53622;0.000;0.000;2023-07-16T04:57:13;23.10;64.20
66708;DHT22;53622;0.000;0.000;2023-07-16T04:59:42;23.10;65.20
66708;DHT22;53622;0.000;0.000;2023-07-16T05:02:12;23.10;65.50
66708;DHT22;53622;0.000;0.000;2023-07-16T05:04:43;23.20;65.60
66708;DHT22;53622;0.000;0.000;2023-07-16T05:07:15;23.20;65.30
66708;DHT22;53622;0.000;0.000;2023-07-16T05:09:46;23.20;65.20
66708;DHT22;53622;0.000;0.000;2023-07-16T05:12:16;23.20;65.60
66708;DHT22;53622;0.000;0.000;2023-07-16T05:14:46;23.20;66.40
66708;DHT22;53622;0.000;0.000;2023-07-16T05:17:16;23.30;66.10
66708;DHT22;53622;0.000;0.000;2023-07-16T05:19:45;23.30;66.10
66708;DHT22;53622;0.000;0.000;2023-07-16T05:22:15;23.30;65.80
66708;DHT22;53622;0.000;0.000;2023-07-16T05:24:46;23.30;65.80
66708;DHT22;53622;0.000;0.000;2023-07-16T05:27:15;23.30;66.00
66708;DHT22;53622;0.000;0.000;2023-07-16T05:29:44;23.30;66.00
66708;DHT22;53622;0.000;0.000;2023-07-16T05:32:15;23.30;66.30
66708;DHT22;53622;0.000;0.000;2023-07-16T05:34:46;23.30;66.10
66708;DHT22;53622;0.000;0.000;2023-07-16T05:37:15;23.30;66.60
66708;DHT22;53622;0.000;0.000;2023-07-16T05:39:46;23.30;65.40
66708;DHT22;53622;0.000;0.000;2023-07-16T05:42:15;23.30;64.20
66708;DHT22;53622;0.000;0.000;2023-07-16T05:44:47;23.30;63.90
66708;DHT22;53622;0.000;0.000;2023-07-16T05:47:16;23.30;64.00
66708;DHT22;53622;0.000;0.000;2023-07-16T05:49:46;23.30;63.80
66708;DHT22;53622;0.000;0.000;2023-07-16T05:52:15;23.40;63.70
66708;DHT22;53622;0.000;0.000;2023-07-16T05:54:46;23.40;63.60
66708;DHT22;53622;0.000;0.000;2023-07-16T05:57:15;23.50;63.70
66708;DHT22;53622;0.000;0.000;2023-07-16T05:59:45;23.60;63.20
66708;DHT22;53622;0.000;0.000;2023-07-16T06:02:14;23.60;63.00
66708;DHT22;53622;0.000;0.000;2023-07-16T06:04:44;23.60;63.30
66708;DHT22;53622;0.000;0.000;2023-07-16T06:07:13;23.60;64.00
66708;DHT22;53622;0.000;0.000;2023-07-16T06:09:43;23.70;63.70
66708;DHT22;53622;0.000;0.000;2023-07-16T06:12:13;23.70;63.60
66708;DHT22;53622;0.000;0.000;2023-07-16T06:14:43;23.70;63.30
66708;DHT22;53622;0.000;0.000;2023-07-16T06:17:12;23.70;63.30
66708;DHT22;53622;0.000;0.000;2023-07-16T06:19:42;23.80;63.60
66708;DHT22;53622;0.000;0.000;2023-07-16T06:22:12;23.80;63.30
66708;DHT22;53622;0.000;0.000;2023-07-16T06:24:41;23.80;62.30
66708;DHT22;53622;0.000;0.000;2023-07-16T06:27:13;23.90;61.90
66708;DHT22;53622;0.000;0.000;2023-07-16T06:29:43;23.90;62.40
66708;DHT22;53622;0.000;0.000;2023-07-16T06:32:12;23.90;62.00
66708;DHT22;53622;0.000;0.000;2023-07-16T06:34:42;23.90;61.60
66708;DHT22;53622;0.000;0.000;2023-07-16T06:37:11;23.80;61.70
66708;DHT22;53622;0.000;0.000;2023-07-16T06:39:40;23.80;61.60
66708;DHT22;53622;0.000;0.000;2023-07-16T06:42:10;23.80;61.60
66708;DHT22;53622;0.000;0.000;2023-07-16T06:44:41;23.90;61.70
66708;DHT22;53622;0.000;0.000;2023-07-16T06:47:10;23.90;61.90
66708;DHT22;53622;0.000;0.000;2023-07-16T06:49:39;24.00;61.60
66708;DHT22;53622;0.000;0.000;2023-07-16T06:52:18;24.00;61.10
66708;DHT22;53622;0.000;0.000;2023-07-16T06:54:48;24.00;61.30
66708;DHT22;53622;0.000;0.000;2023-07-16T06:57:17;24.00;61.10
66708;DHT22;53622;0.000;0.000;2023-07-16T06:59:48;24.00;60.40
66708;DHT22;53622;0.000;0.000;2023-07-16T07:02:18;24.00;60.40
66708;DHT22;53622;0.000;0.000;2023-07-16T07:04:48;24.00;60.50
66708;DHT22;53622;0.000;0.000;2023-07-16T07:07:17;23.90;60.90
66708;DHT22;53622;0.000;0.000;2023-07-16T07:09:47;24.00;61.20
66708;DHT22;53622;0.000;0.000;2023-07-16T07:12:18;24.00;61.10
66708;DHT22;53622;0.000;0.000;2023-07-16T07:14:49;24.00;61.20
66708;DHT22;53622;0.000;0.000;2023-07-16T07:17:18;24.10;60.60
66708;DHT22;53622;0.000;0.000;2023-07-16T07:19:47;24.10;60.00
66708;DHT22;53622;0.000;0.000;2023-07-16T07:22:19;24.20;59.60
66708;DHT22;53622;0.000;0.000;2023-07-16T07:24:52;24.10;59.50
66708;DHT22;53622;0.000;0.000;2023-07-16T07:27:22;24.10;60.00
66708;DHT22;53622;0.000;0.000;2023-07-16T07:29:53;24.10;60.10
66708;DHT22;53622;0.000;0.000;2023-07-16T07:32:23;24.20;60.10
66708;DHT22;53622;0.000;0.000;2023-07-16T07:34:53;24.20;60.20
66708;DHT22;53622;0.000;0.000;2023-07-16T07:37:22;24.10;60.40
66708;DHT22;53622;0.000;0.000;2023-07-16T07:39:52;24.00;60.10
66708;DHT22;53622;0.000;0.000;2023-07-16T07:42:21;24.00;60.40
66708;DHT22;53622;0.000;0.000;2023-07-16T07:44:55;24.00;60.50
66708;DHT22;53622;0.000;0.000;2023-07-16T07:47:24;24.00;61.10
66708;DHT22;53622;0.000;0.000;2023-07-16T07:49:54;24.10;61.40
66708;DHT22;53622;0.000;0.000;2023-07-16T07:52:26;24.20;61.00
66708;DHT22;53622;0.000;0.000;2023-07-16T07:54:56;24.20;60.20
66708;DHT22;53622;0.000;0.000;2023-07-16T07:57:26;24.20;60.20
66708;DHT22;53622;0.000;0.000;2023-07-16T07:59:57;24.30;60.50
66708;DHT22;53622;0.000;0.000;2023-07-16T08:02:38;24.30;60.60
66708;DHT22;53622;0.000;0.000;2023-07-16T08:05:10;24.40;60.00
66708;DHT22;53622;0.000;0.000;2023-07-16T08:07:41;24.40;59.90
66708;DHT22;53622;0.000;0.000;2023-07-16T08:10:11;24.40;60.30
66708;DHT22;53622;0.000;0.000;2023-07-16T08:12:40;24.50;60.00
66708;DHT22;53622;0.000;0.000;2023-07-16T08:15:11;24.40;60.90
66708;DHT22;53622;0.000;0.000;2023-07-16T08:17:44;24.50;60.90
66708;DHT22;53622;0.000;0.000;2023-07-16T08:20:14;24.60;60.90
66708;DHT22;53622;0.000;0.000;2023-07-16T08:22:43;24.60;60.80
66708;DHT22;53622;0.000;0.000;2023-07-16T08:25:13;24.60;60.70
66708;DHT22;53622;0.000;0.000;2023-07-16T08:27:42;24.70;60.90
66708;DHT22;53622;0.000;0.000;2023-07-16T08:30:14;24.70;61.00
66708;DHT22;53622;0.000;0.000;2023-07-16T08:32:44;24.70;61.10
66708;DHT22;53622;0.000;0.000;2023-07-16T08:35:13;24.70;61.20
66708;DHT22;53622;0.000;0.000;2023-07-16T08:37:44;24.70;61.20
66708;DHT22;53622;0.000;0.000;2023-07-16T08:40:14;24.60;61.20
66708;DHT22;53622;0.000;0.000;2023-07-16T08:42:45;24.70;61.30
66708;DHT22;53622;0.000;0.000;2023-07-16T08:45:16;24.70;61.40
66708;DHT22;53622;0.000;0.000;2023-07-16T08:47:50;24.70;61.60
66708;DHT22;53622;0.000;0.000;2023-07-16T08:50:22;24.70;61.60
66708;DHT22;53622;0.000;0.000;2023-07-16T08:52:53;24.70;61.70
66708;DHT22;53622;0.000;0.000;2023-07-16T08:55:23;24.70;61.70
66708;DHT22;53622;0.000;0.000;2023-07-16T08:57:52;24.70;61.70
66708;DHT22;53622;0.000;0.000;2023-07-16T09:00:24;24.80;61.90
66708;DHT22;53622;0.000;0.000;2023-07-16T09:02:54;24.80;61.90
66708;DHT22;53622;0.000;0.000;2023-07-16T09:05:24;24.80;62.00
66708;DHT22;53622;0.000;0.000;2023-07-16T09:08:06;24.70;62.20
66708;DHT22;53622;0.000;0.000;2023-07-16T09:10:36;24.80;62.20
66708;DHT22;53622;0.000;0.000;2023-07-16T09:13:07;24.80;62.30
66708;DHT22;53622;0.000;0.000;2023-07-16T09:15:38;24.80;62.40
66708;DHT22;53622;0.000;0.000;2023-07-16T09:18:09;24.80;62.40
66708;DHT22;53622;0.000;0.000;2023-07-16T09:20:40;24.80;62.50
66708;DHT22;53622;0.000;0.000;2023-07-16T09:23:11;24.80;62.60
66708;DHT22;53622;0.000;0.000;2023-07-16T09:25:41;24.80;62.70
66708;DHT22;53622;0.000;0.000;2023-07-16T09:28:12;24.80;62.80
66708;DHT22;53622;0.000;0.000;2023-07-16T09:30:43;24.80;62.90
66708;DHT22;53622;0.000;0.000;2023-07-16T09:33:14;24.80;63.00
66708;DHT22;53622;0.000;0.000;2023-07-16T09:35:44;24.80;63.10
66708;DHT22;53622;0.000;0.000;2023-07-16T09:38:14;24.80;63.10
66708;DHT22;53622;0.000;0.000;2023-07-16T09:40:43;24.80;63.10
66708;DHT22;53622;0.000;0.000;2023-07-16T09:43:13;24.80;63.20
66708;DHT22;53622;0.000;0.000;2023-07-16T09:45:44;24.80;63.20
66708;DHT22;53622;0.000;0.000;2023-07-16T09:48:14;24.80;63.30
66708;DHT22;53622;0.000;0.000;2023-07-16T09:50:49;24.80;63.30
66708;DHT22;53622;0.000;0.000;2023-07-16T09:53:20;24.80;63.30
66708;DHT22;53622;0.000;0.000;2023-07-16T09:55:53;24.80;63.30
66708;DHT22;53622;0.000;0.000;2023-07-16T09:58:23;24.80;63.40
66708;DHT22;53622;0.000;0.000;2023-07-16T10:00:55;24.90;63.30
66708;DHT22;53622;0.000;0.000;2023-07-16T10:03:25;24.90;63.30
66708;DHT22;53622;0.000;0.000;2023-07-16T10:06:05;24.90;63.40
66708;DHT22;53622;0.000;0.000;2023-07-16T10:08:35;24.90;63.80
66708;DHT22;53622;0.000;0.000;2023-07-16T10:11:15;25.00;63.50
66708;DHT22;53622;0.000;0.000;2023-07-16T10:13:49;25.00;63.60
66708;DHT22;53622;0.000;0.000;2023-07-16T10:16:25;25.10;63.60
66708;DHT22;53622;0.000;0.000;2023-07-16T10:19:02;25.10;63.80
66708;DHT22;53622;0.000;0.000;2023-07-16T10:21:37;25.10;64.20
66708;DHT22;53622;0.000;0.000;2023-07-16T10:24:17;25.10;64.70
66708;DHT22;53622;0.000;0.000;2023-07-16T10:26:52;25.20;64.60
66708;DHT22;53622;0.000;0.000;2023-07-16T10:29:22;25.20;64.20
66708;DHT22;53622;0.000;0.000;2023-07-16T10:35:20;25.20;63.90
66708;DHT22;53622;0.000;0.000;2023-07-16T10:37:50;25.20;63.80
66708;DHT22;53622;0.000;0.000;2023-07-16T10:40:20;25.20;63.80
66708;DHT22;53622;0.000;0.000;2023-07-16T10:42:49;25.20;64.00
66708;DHT22;53622;0.000;0.000;2023-07-16T10:45:26;25.20;64.10
66708;DHT22;53622;0.000;0.000;2023-07-16T10:47:58;25.20;64.30
66708;DHT22;53622;0.000;0.000;2023-07-16T10:50:31;25.30;64.50
66708;DHT22;53622;0.000;0.000;2023-07-16T10:53:01;25.30;65.00
66708;DHT22;53622;0.000;0.000;2023-07-16T10:55:31;25.40;64.80
66708;DHT22;53622;0.000;0.000;2023-07-16T10:58:05;25.30;64.70
66708;DHT22;53622;0.000;0.000;2023-07-16T11:00:37;25.40;64.80
66708;DHT22;53622;0.000;0.000;2023-07-16T11:03:07;25.40;64.80
66708;DHT22;53622;0.000;0.000;2023-07-16T11:05:39;25.40;64.80
66708;DHT22;53622;0.000;0.000;2023-07-16T11:08:09;25.40;64.70
66708;DHT22;53622;0.000;0.000;2023-07-16T11:10:38;25.40;64.70
66708;DHT22;53622;0.000;0.000;2023-07-16T11:13:07;25.40;64.70
66708;DHT22;53622;0.000;0.000;2023-07-16T11:15:37;25.40;64.90
66708;DHT22;53622;0.000;0.000;2023-07-16T11:18:08;25.40;64.40
66708;DHT22;53622;0.000;0.000;2023-07-16T11:20:39;25.40;64.30
66708;DHT22;53622;0.000;0.000;2023-07-16T11:23:10;25.40;64.30
66708;DHT22;53622;0.000;0.000;2023-07-16T11:25:46;25.50;64.40
66708;DHT22;53622;0.000;0.000;2023-07-16T11:28:15;25.50;64.40
66708;DHT22;53622;0.000;0.000;2023-07-16T11:30:45;25.50;64.50
66708;DHT22;53622;0.000;0.000;2023-07-16T11:33:14;25.40;64.40
66708;DHT22;53622;0.000;0.000;2023-07-16T11:35:48;25.50;64.40
66708;DHT22;53622;0.000;0.000;2023-07-16T11:38:18;25.50;64.30
66708;DHT22;53622;0.000;0.000;2023-07-16T11:40:47;25.50;64.10
66708;DHT22;53622;0.000;0.000;2023-07-16T11:43:19;25.50;63.80
66708;DHT22;53622;0.000;0.000;2023-07-16T11:45:48;25.50;63.60
66708;DHT22;53622;0.000;0.000;2023-07-16T11:48:18;25.50;63.70
66708;DHT22;53622;0.000;0.000;2023-07-16T11:50:48;25.50;63.70
66708;DHT22;53622;0.000;0.000;2023-07-16T11:53:18;25.50;63.80
66708;DHT22;53622;0.000;0.000;2023-07-16T11:55:47;25.50;63.90
66708;DHT22;53622;0.000;0.000;2023-07-16T11:58:16;25.50;63.80
66708;DHT22;53622;0.000;0.000;2023-07-16T12:00:46;25.50;63.70
66708;DHT22;53622;0.000;0.000;2023-07-16T12:03:15;25.50;63.70
66708;DHT22;53622;0.000;0.000;2023-07-16T12:05:45;25.50;63.60
66708;DHT22;53622;0.000;0.000;2023-07-16T12:08:22;25.60;63.50
66708;DHT22;53622;0.000;0.000;2023-07-16T12:10:51;25.60;63.30
66708;DHT22;53622;0.000;0.000;2023-07-16T12:13:21;25.60;63.50
66708;DHT22;53622;0.000;0.000;2023-07-16T12:15:50;25.50;63.30
66708;DHT22;53622;0.000;0.000;2023-07-16T12:18:21;25.50;63.50
66708;DHT22;53622;0.000;0.000;2023-07-16T12:20:50;25.50;63.60
66708;DHT22;53622;0.000;0.000;2023-07-16T12:23:22;25.50;63.70
66708;DHT22;53622;0.000;0.000;2023-07-16T12:25:52;25.60;63.90
66708;DHT22;53622;0.000;0.000;2023-07-16T12:28:22;25.50;64.00
66708;DHT22;53622;0.000;0.000;2023-07-16T12:30:53;25.50;64.10
66708;DHT22;53622;0.000;0.000;2023-07-16T12:33:24;25.50;64.10
66708;DHT22;53622;0.000;0.000;2023-07-16T12:35:54;25.50;64.80
66708;DHT22;53622;0.000;0.000;2023-07-16T12:38:25;25.50;64.10
66708;DHT22;53622;0.000;0.000;2023-07-16T12:40:54;25.50;64.10
66708;DHT22;53622;0.000;0.000;2023-07-16T12:43:24;25.50;64.10
66708;DHT22;53622;0.000;0.000;2023-07-16T12:45:53;25.50;64.30
66708;DHT22;53622;0.000;0.000;2023-07-16T12:48:23;25.50;64.20
66708;DHT22;53622;0.000;0.000;2023-07-16T12:50:55;25.50;64.20
66708;DHT22;53622;0.000;0.000;2023-07-16T12:53:29;25.50;64.40
66708;DHT22;53622;0.000;0.000;2023-07-16T12:56:00;25.50;64.50
66708;DHT22;53622;0.000;0.000;2023-07-16T12:58:31;25.40;64.40
66708;DHT22;53622;0.000;0.000;2023-07-16T13:01:01;25.40;64.50
66708;DHT22;53622;0.000;0.000;2023-07-16T13:03:31;25.40;64.70
66708;DHT22;53622;0.000;0.000;2023-07-16T13:06:01;25.40;64.60
66708;DHT22;53622;0.000;0.000;2023-07-16T13:08:34;25.40;64.50
66708;DHT22;53622;0.000;0.000;2023-07-16T13:11:06;25.40;64.60
66708;DHT22;53622;0.000;0.000;2023-07-16T13:13:37;25.50;65.40
66708;DHT22;53622;0.000;0.000;2023-07-16T13:16:16;25.50;64.70
66708;DHT22;53622;0.000;0.000;2023-07-16T13:18:55;25.40;64.70
66708;DHT22;53622;0.000;0.000;2023-07-16T13:21:40;25.40;64.80
66708;DHT22;53622;0.000;0.000;2023-07-16T13:24:17;25.40;64.90
66708;DHT22;53622;0.000;0.000;2023-07-16T13:26:48;25.40;64.80
66708;DHT22;53622;0.000;0.000;2023-07-16T13:29:18;25.50;65.00
66708;DHT22;53622;0.000;0.000;2023-07-16T13:31:48;25.50;64.90
66708;DHT22;53622;0.000;0.000;2023-07-16T13:34:18;25.50;64.80
66708;DHT22;53622;0.000;0.000;2023-07-16T13:36:50;25.50;64.80
66708;DHT22;53622;0.000;0.000;2023-07-16T13:39:24;25.50;65.10
66708;DHT22;53622;0.000;0.000;2023-07-16T13:42:03;25.50;65.30
66708;DHT22;53622;0.000;0.000;2023-07-16T13:44:51;25.50;65.50
66708;DHT22;53622;0.000;0.000;2023-07-16T13:47:45;25.40;65.60
66708;DHT22;53622;0.000;0.000;2023-07-16T13:50:26;25.40;66.10
66708;DHT22;53622;0.000;0.000;2023-07-16T13:52:56;25.50;66.20
66708;DHT22;53622;0.000;0.000;2023-07-16T13:55:31;25.50;66.30
66708;DHT22;53622;0.000;0.000;2023-07-16T13:58:02;25.50;66.40
66708;DHT22;53622;0.000;0.000;2023-07-16T14:00:33;25.50;66.40
66708;DHT22;53622;0.000;0.000;2023-07-16T14:03:05;25.60;67.00
66708;DHT22;53622;0.000;0.000;2023-07-16T14:05:41;25.60;67.70
66708;DHT22;53622;0.000;0.000;2023-07-16T14:08:18;25.60;67.20
66708;DHT22;53622;0.000;0.000;2023-07-16T14:10:51;25.60;67.70
66708;DHT22;53622;0.000;0.000;2023-07-16T14:13:21;25.60;67.10
66708;DHT22;53622;0.000;0.000;2023-07-16T14:15:52;25.60;67.10
66708;DHT22;53622;0.000;0.000;2023-07-16T14:18:22;25.70;67.10
66708;DHT22;53622;0.000;0.000;2023-07-16T14:20:52;25.70;66.80
66708;DHT22;53622;0.000;0.000;2023-07-16T14:23:23;25.80;66.70
66708;DHT22;53622;0.000;0.000;2023-07-16T14:25:57;25.80;66.80
66708;DHT22;53622;0.000;0.000;2023-07-16T14:28:28;25.80;67.00
66708;DHT22;53622;0.000;0.000;2023-07-16T14:31:02;25.80;67.50
66708;DHT22;53622;0.000;0.000;2023-07-16T14:33:35;25.80;67.50
66708;DHT22;53622;0.000;0.000;2023-07-16T14:36:12;25.80;67.80
66708;DHT22;53622;0.000;0.000;2023-07-16T14:38:45;25.70;68.20
66708;DHT22;53622;0.000;0.000;2023-07-16T14:41:20;25.80;68.10
66708;DHT22;53622;0.000;0.000;2023-07-16T14:43:58;25.70;68.30
66708;DHT22;53622;0.000;0.000;2023-07-16T14:46:33;25.80;68.30
66708;DHT22;53622;0.000;0.000;2023-07-16T14:49:03;25.80;68.10
66708;DHT22;53622;0.000;0.000;2023-07-16T14:51:33;25.90;68.20
66708;DHT22;53622;0.000;0.000;2023-07-16T14:54:09;25.90;68.30
66708;DHT22;53622;0.000;0.000;2023-07-16T14:56:45;25.80;68.50
66708;DHT22;53622;0.000;0.000;2023-07-16T14:59:17;25.80;68.90
66708;DHT22;53622;0.000;0.000;2023-07-16T15:01:47;25.80;68.80
66708;DHT22;53622;0.000;0.000;2023-07-16T15:04:24;25.90;68.70
66708;DHT22;53622;0.000;0.000;2023-07-16T15:06:57;25.90;68.70
66708;DHT22;53622;0.000;0.000;2023-07-16T15:09:30;26.00;68.60
66708;DHT22;53622;0.000;0.000;2023-07-16T15:12:15;26.00;68.60
66708;DHT22;53622;0.000;0.000;2023-07-16T15:14:53;26.00;68.50
66708;DHT22;53622;0.000;0.000;2023-07-16T15:17:32;26.00;68.50
66708;DHT22;53622;0.000;0.000;2023-07-16T15:20:15;26.00;68.60
66708;DHT22;53622;0.000;0.000;2023-07-16T15:22:45;26.00;68.80
66708;DHT22;53622;0.000;0.000;2023-07-16T15:25:15;26.00;68.90
66708;DHT22;53622;0.000;0.000;2023-07-16T15:27:48;26.00;69.00
66708;DHT22;53622;0.000;0.000;2023-07-16T15:30:21;26.00;69.20
66708;DHT22;53622;0.000;0.000;2023-07-16T15:32:54;26.00;69.50
66708;DHT22;53622;0.000;0.000;2023-07-16T15:35:35;26.00;69.50
66708;DHT22;53622;0.000;0.000;2023-07-16T15:38:11;26.00;69.40
66708;DHT22;53622;0.000;0.000;2023-07-16T15:40:52;26.00;69.40
66708;DHT22;53622;0.000;0.000;2023-07-16T15:43:34;26.00;69.40
66708;DHT22;53622;0.000;0.000;2023-07-16T15:46:14;26.00;69.60
66708;DHT22;53622;0.000;0.000;2023-07-16T15:48:46;26.00;69.90
66708;DHT22;53622;0.000;0.000;2023-07-16T15:51:17;25.90;70.00
66708;DHT22;53622;0.000;0.000;2023-07-16T15:53:52;25.90;70.00
66708;DHT22;53622;0.000;0.000;2023-07-16T15:56:23;26.00;69.40
66708;DHT22;53622;0.000;0.000;2023-07-16T15:58:55;26.00;69.20
66708;DHT22;53622;0.000;0.000;2023-07-16T16:01:27;26.00;69.20
66708;DHT22;53622;0.000;0.000;2023-07-16T16:04:05;26.00;69.60
66708;DHT22;53622;0.000;0.000;2023-07-16T16:06:38;26.00;69.50
66708;DHT22;53622;0.000;0.000;2023-07-16T16:09:17;26.10;69.70
66708;DHT22;53622;0.000;0.000;2023-07-16T16:12:00;26.20;69.50
66708;DHT22;53622;0.000;0.000;2023-07-16T16:14:33;26.20;69.70
66708;DHT22;53622;0.000;0.000;2023-07-16T16:17:03;26.20;69.70
66708;DHT22;53622;0.000;0.000;2023-07-16T16:19:36;26.20;69.80